Time;durP1;ratioP1;P1;durP2;ratioP2;P2;SDS_P1;SDS_P2;PMS_P1;PMS_P2;Temp;Humidity;BMP_temperature;BMP_pressure;BME280_temperature;BME280_humidity;BME280_pressure;Samples;Min_cycle;Max_cycle;Signal;HPM_P1;HPM_P2
2023/12/10 00:02:13;;;;;;;41.17;5.57;;;;;;;-145.18;100.00;46742.44;5072331;28;20499;-78
2023/12/10 00:04:39;;;;;;;28.27;3.80;;;;;;;-145.18;100.00;46734.63;5075403;28;20722;-80
2023/12/10 00:07:05;;;;;;;26.93;4.50;;;;;;;-145.18;100.00;46736.56;5076568;28;20362;-78
2023/12/10 00:09:30;;;;;;;27.60;3.90;;;;;;;-145.18;100.00;46744.38;5074866;28;20039;-78
2023/12/10 00:11:56;;;;;;;27.90;4.03;;;;;;;-145.18;100.00;46734.63;5080035;28;20127;-77
2023/12/10 00:14:21;;;;;;;40.93;5.03;;;;;;;-145.18;100.00;46736.56;5089789;28;20131;-79
2023/12/10 00:16:47;;;;;;;38.53;4.47;;;;;;;-145.18;100.00;46732.66;5085809;28;20044;-79
2023/12/10 00:19:13;;;;;;;29.93;4.27;;;;;;;-145.18;100.00;46726.81;5084586;28;20116;-78
2023/12/10 00:21:38;;;;;;;38.57;5.97;;;;;;;-145.18;100.00;46728.75;5087619;28;20693;-78
2023/12/10 00:24:05;;;;;;;27.40;4.43;;;;;;;-145.18;100.00;46732.66;5083633;28;20500;-78
2023/12/10 00:26:30;;;;;;;18.87;3.40;;;;;;;-145.18;100.00;46728.75;5075039;28;20079;-78
2023/12/10 00:28:55;;;;;;;22.07;2.93;;;;;;;-145.18;100.00;46728.75;5089861;28;20273;-78
2023/12/10 00:31:21;;;;;;;34.37;4.73;;;;;;;-145.18;100.00;46728.75;5087123;28;20036;-77
2023/12/10 00:33:47;;;;;;;23.37;3.93;;;;;;;-145.18;100.00;46728.75;5094254;28;20028;-76
2023/12/10 00:36:12;;;;;;;29.83;3.40;;;;;;;-145.18;100.00;46724.84;5080193;28;20045;-76
2023/12/10 00:38:38;;;;;;;22.97;4.17;;;;;;;-145.18;100.00;46728.75;5083805;28;20028;-77
2023/12/10 00:41:05;;;;;;;34.67;3.20;;;;;;;-145.18;100.00;46732.66;5083987;28;20054;-76
2023/12/10 00:43:30;;;;;;;22.80;4.00;;;;;;;-145.18;100.00;46728.75;5086909;28;20492;-76
2023/12/10 00:45:57;;;;;;;18.67;3.60;;;;;;;-145.18;100.00;46728.75;5073876;28;20269;-76
2023/12/10 00:48:23;;;;;;;24.10;4.77;;;;;;;-145.18;100.00;46728.75;5074857;28;20036;-77
2023/12/10 00:50:48;;;;;;;29.73;3.63;;;;;;;-145.18;100.00;46728.75;5074306;28;20253;-76
2023/12/10 00:53:14;;;;;;;19.57;2.77;;;;;;;-145.18;100.00;46728.75;5079768;28;20051;-76
2023/12/10 00:55:40;;;;;;;30.70;5.67;;;;;;;-145.18;100.00;46728.75;5081372;28;20396;-76
2023/12/10 00:58:06;;;;;;;18.90;3.07;;;;;;;-145.18;100.00;46728.75;5073521;28;20261;-76
2023/12/10 01:00:31;;;;;;;27.70;4.67;;;;;;;-145.18;100.00;46728.75;5086353;28;20113;-77
2023/12/10 01:02:57;;;;;;;26.20;4.27;;;;;;;-145.18;100.00;46732.66;5079538;28;20149;-77
2023/12/10 01:05:22;;;;;;;19.63;2.40;;;;;;;-145.18;100.00;46728.75;5080911;28;20396;-77
2023/12/10 01:07:47;;;;;;;26.40;3.20;;;;;;;-145.18;100.00;46736.56;5073566;28;20032;-76
2023/12/10 01:10:13;;;;;;;24.67;5.40;;;;;;;-145.18;100.00;46732.66;5079635;28;20074;-77
2023/12/10 01:12:39;;;;;;;29.20;3.50;;;;;;;-145.18;100.00;46734.63;5080059;28;20094;-77
2023/12/10 01:15:05;;;;;;;21.13;2.70;;;;;;;-145.18;100.00;46726.81;5085742;28;20407;-76
2023/12/10 01:17:31;;;;;;;30.20;4.33;;;;;;;-145.18;100.00;46734.63;5077532;28;20073;-76
2023/12/10 01:19:59;;;;;;;20.80;2.80;;;;;;;-145.18;100.00;46736.56;5080779;28;20326;-76
2023/12/10 01:22:24;;;;;;;31.53;3.90;;;;;;;-145.18;100.00;46728.75;5072656;28;20773;-77
2023/12/10 01:24:52;;;;;;;21.57;2.93;;;;;;;-145.18;100.00;46734.63;5081641;28;20280;-76
2023/12/10 01:27:18;;;;;;;23.33;2.80;;;;;;;-145.18;100.00;46736.56;5091818;28;20036;-76
2023/12/10 01:29:43;;;;;;;17.13;1.93;;;;;;;-145.18;100.00;46732.66;5078495;28;20295;-77
2023/12/10 01:32:10;;;;;;;22.23;2.97;;;;;;;-145.18;100.00;46734.63;5089566;28;20420;-77
2023/12/10 01:34:36;;;;;;;20.10;3.07;;;;;;;-145.18;100.00;46736.56;5085018;28;20036;-77
2023/12/10 01:37:01;;;;;;;24.30;2.70;;;;;;;-145.18;100.00;46728.75;5073665;28;20258;-76
2023/12/10 01:39:27;;;;;;;17.57;2.60;;;;;;;-145.18;100.00;46732.66;5073101;28;20065;-76
2023/12/10 01:41:52;;;;;;;21.20;3.17;;;;;;;-145.18;100.00;46738.53;5078819;28;20112;-77
2023/12/10 01:44:18;;;;;;;27.83;2.87;;;;;;;-145.18;100.00;46734.63;5080604;28;20028;-77
2023/12/10 01:46:45;;;;;;;19.10;3.10;;;;;;;-145.18;100.00;46736.56;5079981;28;20404;-77
2023/12/10 01:49:11;;;;;;;19.77;2.37;;;;;;;-145.18;100.00;46738.53;5075187;28;20032;-78
2023/12/10 01:51:37;;;;;;;24.70;3.03;;;;;;;-145.18;100.00;46742.44;5091595;28;20031;-76
2023/12/10 01:54:03;;;;;;;16.53;3.07;;;;;;;-145.18;100.00;46746.34;5091117;28;20288;-76
2023/12/10 01:56:30;;;;;;;26.57;3.50;;;;;;;-145.18;100.00;46740.47;5079397;28;20272;-76
2023/12/10 01:58:56;;;;;;;23.83;2.77;;;;;;;-145.18;100.00;46748.28;5087962;28;20047;-75
2023/12/10 02:01:23;;;;;;;24.47;3.23;;;;;;;-145.18;100.00;46752.19;5078011;28;20032;-76
2023/12/10 02:03:49;;;;;;;24.43;3.80;;;;;;;-145.18;100.00;46750.25;5078048;28;20107;-76
2023/12/10 02:06:15;;;;;;;21.23;2.93;;;;;;;-145.18;100.00;46742.44;5079286;28;20129;-76
2023/12/10 02:08:40;;;;;;;18.53;2.90;;;;;;;-145.18;100.00;46746.34;5075197;28;20555;-76
2023/12/10 02:11:06;;;;;;;26.30;3.87;;;;;;;-145.18;100.00;46750.25;5073401;28;20074;-76
2023/12/10 02:13:31;;;;;;;24.73;3.60;;;;;;;-145.18;100.00;46752.19;5074343;28;20052;-76
2023/12/10 02:15:57;;;;;;;19.33;2.87;;;;;;;-145.18;100.00;46748.28;5093701;28;20051;-76
2023/12/10 02:18:22;;;;;;;26.73;3.90;;;;;;;-145.18;100.00;46742.44;5079745;28;20047;-76
2023/12/10 02:20:48;;;;;;;17.33;3.30;;;;;;;-145.18;100.00;46742.44;5084041;28;20036;-76
2023/12/10 02:23:32;;;;;;;27.07;3.17;;;;;;;-145.18;100.00;46734.63;5075647;28;20123;-76
2023/12/10 02:25:58;;;;;;;26.83;2.90;;;;;;;-145.18;100.00;46740.47;5081466;28;20268;-76
2023/12/10 02:28:24;;;;;;;20.57;2.80;;;;;;;-145.18;100.00;46740.47;5079962;28;20257;-76
2023/12/10 02:30:50;;;;;;;23.37;3.63;;;;;;;-145.18;100.00;46744.38;5078136;28;20068;-77
2023/12/10 02:33:15;;;;;;;25.60;3.80;;;;;;;-145.18;100.00;46738.53;5080432;28;20373;-77
2023/12/10 02:35:41;;;;;;;23.43;3.50;;;;;;;-145.18;100.00;46738.53;5082585;28;20449;-76
2023/12/10 02:38:06;;;;;;;25.47;3.10;;;;;;;-145.18;100.00;46740.47;5087388;28;20028;-76
2023/12/10 02:40:32;;;;;;;20.33;3.03;;;;;;;-145.18;100.00;46738.53;5080230;28;20032;-77
2023/12/10 02:42:57;;;;;;;25.37;2.93;;;;;;;-145.18;100.00;46740.47;5072072;28;20400;-77
2023/12/10 02:45:23;;;;;;;30.13;3.27;;;;;;;-145.18;100.00;46744.38;5081085;28;20034;-77
2023/12/10 02:47:48;;;;;;;20.97;3.00;;;;;;;-145.18;100.00;46738.53;5076324;28;20472;-77
2023/12/10 02:50:14;;;;;;;19.97;3.10;;;;;;;-145.18;100.00;46738.53;5081089;28;20028;-77
2023/12/10 02:52:39;;;;;;;27.33;4.13;;;;;;;-145.18;100.00;46748.28;5075706;28;20048;-77
2023/12/10 02:55:06;;;;;;;22.73;4.17;;;;;;;-145.18;100.00;46744.38;5086745;28;20364;-77
2023/12/10 02:57:31;;;;;;;28.27;3.57;;;;;;;-145.18;100.00;46742.44;5079315;28;20040;-77
2023/12/10 02:59:57;;;;;;;35.53;3.93;;;;;;;-145.18;100.00;46748.28;5072537;28;20261;-77
2023/12/10 03:02:23;;;;;;;28.80;4.67;;;;;;;-145.18;100.00;46748.28;5071868;28;20048;-77
2023/12/10 03:04:48;;;;;;;21.30;3.90;;;;;;;-145.18;100.00;46750.25;5089719;28;20097;-78
2023/12/10 03:07:14;;;;;;;22.50;3.63;;;;;;;-145.18;100.00;46754.16;5086134;28;20086;-78
2023/12/10 03:09:39;;;;;;;25.87;3.77;;;;;;;-145.18;100.00;46748.28;5074848;28;20038;-77
2023/12/10 03:12:05;;;;;;;31.13;3.50;;;;;;;-145.18;100.00;46750.25;5078294;28;20067;-77
2023/12/10 03:14:31;;;;;;;21.60;3.07;;;;;;;-145.18;100.00;46750.25;5088671;28;20036;-77
2023/12/10 03:16:56;;;;;;;18.10;2.83;;;;;;;-145.18;100.00;46740.47;5082686;28;20499;-78
2023/12/10 03:19:21;;;;;;;9.67;2.13;;;;;;;-145.18;100.00;46744.38;5079996;28;20071;-77
2023/12/10 03:21:47;;;;;;;22.77;3.63;;;;;;;-145.18;100.00;46742.44;5075185;28;20036;-76
2023/12/10 03:24:12;;;;;;;31.17;3.70;;;;;;;-145.18;100.00;46740.47;5089116;28;20066;-77
2023/12/10 03:26:38;;;;;;;25.00;3.10;;;;;;;-145.18;100.00;46728.75;5077203;28;20032;-78
2023/12/10 03:29:04;;;;;;;25.17;2.97;;;;;;;-145.18;100.00;46726.81;5090051;28;20466;-78
2023/12/10 03:31:31;;;;;;;23.87;3.83;;;;;;;-145.18;100.00;46724.84;5082797;28;20085;-77
2023/12/10 03:33:56;;;;;;;23.80;2.93;;;;;;;-145.18;100.00;46722.91;5075952;28;20036;-77
2023/12/10 03:36:22;;;;;;;27.53;3.90;;;;;;;-145.18;100.00;46720.94;5091766;28;20121;-76
2023/12/10 03:38:47;;;;;;;35.03;4.33;;;;;;;-145.18;100.00;46699.47;5071630;28;20438;-77
2023/12/10 03:41:13;;;;;;;29.00;5.33;;;;;;;-145.18;100.00;46679.94;5076831;28;20551;-77
2023/12/10 03:43:38;;;;;;;14.60;2.83;;;;;;;-145.18;100.00;46681.88;5082985;28;20073;-77
2023/12/10 03:46:04;;;;;;;26.30;3.93;;;;;;;-145.18;100.00;46672.13;5073516;28;20024;-78
2023/12/10 03:48:29;;;;;;;32.20;4.43;;;;;;;-145.18;100.00;46676.03;5074084;28;20029;-77
2023/12/10 03:50:55;;;;;;;17.83;2.90;;;;;;;-145.18;100.00;46679.94;5080504;28;20032;-78
2023/12/10 03:53:20;;;;;;;40.47;4.13;;;;;;;-145.18;100.00;46670.16;5082050;28;20089;-77
2023/12/10 03:55:46;;;;;;;27.90;3.50;;;;;;;-145.18;100.00;46660.41;5097018;28;20441;-78
2023/12/10 03:58:11;;;;;;;18.67;4.03;;;;;;;-145.18;100.00;46672.13;5088693;28;20518;-77
2023/12/10 04:00:37;;;;;;;23.13;3.30;;;;;;;-145.18;100.00;46666.25;5083515;28;20028;-77
2023/12/10 04:03:02;;;;;;;20.00;3.10;;;;;;;-145.18;100.00;46664.31;5081870;28;20032;-77
2023/12/10 04:05:28;;;;;;;24.87;4.53;;;;;;;-145.18;100.00;46662.34;5090581;28;20059;-76
2023/12/10 04:07:53;;;;;;;21.87;2.67;;;;;;;-145.18;100.00;46660.41;5078735;28;20097;-77
2023/12/10 04:10:18;;;;;;;22.27;4.07;;;;;;;-145.18;100.00;46685.78;5085932;28;20028;-77
2023/12/10 04:12:45;;;;;;;26.03;3.43;;;;;;;-145.18;100.00;46658.44;5075510;28;20059;-78
2023/12/10 04:15:10;;;;;;;30.93;4.57;;;;;;;-145.18;100.00;46660.41;5083921;28;20056;-77
2023/12/10 04:17:36;;;;;;;34.70;3.30;;;;;;;-145.18;100.00;46676.03;5081145;28;20329;-77
2023/12/10 04:20:02;;;;;;;25.97;4.60;;;;;;;-145.18;100.00;46670.16;5087899;28;20024;-77
2023/12/10 04:22:27;;;;;;;23.70;2.73;;;;;;;-145.18;100.00;46664.31;5082184;28;20105;-77
2023/12/10 04:24:53;;;;;;;23.10;5.93;;;;;;;-145.18;100.00;46668.22;5094407;28;20028;-77
2023/12/10 04:27:18;;;;;;;21.13;2.97;;;;;;;-145.18;100.00;46664.31;5078934;28;20028;-78
2023/12/10 04:29:44;;;;;;;19.37;3.33;;;;;;;-145.18;100.00;46666.25;5088174;28;20035;-77
2023/12/10 04:32:10;;;;;;;30.70;4.60;;;;;;;-145.18;100.00;46677.97;5087893;28;20024;-77
2023/12/10 04:34:38;;;;;;;16.57;2.90;;;;;;;-145.18;100.00;46672.13;5097334;28;20114;-77
2023/12/10 04:37:03;;;;;;;17.00;3.17;;;;;;;-145.18;100.00;46695.56;5087090;28;20110;-77
2023/12/10 04:39:29;;;;;;;26.53;6.20;;;;;;;-145.18;100.00;46707.28;5081541;28;20040;-77
2023/12/10 04:41:54;;;;;;;22.03;4.23;;;;;;;-145.18;100.00;46724.84;5080937;28;20031;-77
2023/12/10 04:44:19;;;;;;;21.27;3.17;;;;;;;-145.18;100.00;46724.84;5080758;28;20096;-78
2023/12/10 04:46:45;;;;;;;22.33;3.33;;;;;;;-145.18;100.00;46724.84;5092704;28;20029;-78
2023/12/10 04:49:10;;;;;;;21.47;4.10;;;;;;;-145.18;100.00;46722.91;5090752;28;20028;-77
2023/12/10 04:51:36;;;;;;;21.10;2.57;;;;;;;-145.18;100.00;46722.91;5081162;28;20035;-77
2023/12/10 04:54:02;;;;;;;29.70;3.90;;;;;;;-145.18;100.00;46719.00;5082451;28;20049;-77
2023/12/10 04:56:28;;;;;;;27.30;3.10;;;;;;;-145.18;100.00;46722.91;5095685;28;20048;-78
2023/12/10 04:58:54;;;;;;;26.63;4.63;;;;;;;-145.18;100.00;46726.81;5075910;28;20428;-78
2023/12/10 05:01:19;;;;;;;19.33;3.63;;;;;;;-145.18;100.00;46724.84;5090295;28;20300;-77
2023/12/10 05:03:45;;;;;;;20.13;3.60;;;;;;;-145.18;100.00;46724.84;5071972;28;20047;-78
2023/12/10 05:06:10;;;;;;;27.80;3.60;;;;;;;-145.18;100.00;46728.75;5092827;28;20036;-77
2023/12/10 05:08:35;;;;;;;20.13;2.40;;;;;;;-145.18;100.00;46724.84;5073039;28;20463;-78
2023/12/10 05:11:02;;;;;;;28.63;3.87;;;;;;;-145.18;100.00;46732.66;5086361;28;20033;-79
2023/12/10 05:13:27;;;;;;;29.13;4.90;;;;;;;-145.18;100.00;46726.81;5083491;28;20052;-78
2023/12/10 05:15:52;;;;;;;24.40;3.77;;;;;;;-145.18;100.00;46728.75;5084160;28;20298;-77
2023/12/10 05:18:18;;;;;;;20.70;3.37;;;;;;;-145.18;100.00;46728.75;5079760;28;20085;-78
2023/12/10 05:20:43;;;;;;;22.43;3.00;;;;;;;-145.18;100.00;46732.66;5084968;28;20056;-77
2023/12/10 05:23:09;;;;;;;21.53;2.77;;;;;;;-145.18;100.00;46728.75;5082011;28;20058;-77
2023/12/10 05:25:34;;;;;;;25.33;3.57;;;;;;;-145.18;100.00;46726.81;5079512;28;20028;-77
2023/12/10 05:27:59;;;;;;;16.73;3.33;;;;;;;-145.18;100.00;46734.63;5076865;28;20111;-77
2023/12/10 05:30:25;;;;;;;23.63;3.13;;;;;;;-145.18;100.00;46728.75;5080420;28;20040;-78
2023/12/10 05:32:51;;;;;;;21.37;4.10;;;;;;;-145.18;100.00;46734.63;5079918;28;20092;-77
2023/12/10 05:35:16;;;;;;;19.80;2.83;;;;;;;-145.18;100.00;46728.75;5079101;28;20653;-77
2023/12/10 05:37:42;;;;;;;26.17;3.17;;;;;;;-145.18;100.00;46724.84;5082128;28;20043;-77
2023/12/10 05:40:08;;;;;;;20.23;3.63;;;;;;;-145.18;100.00;46728.75;5075503;28;20025;-77
2023/12/10 05:42:33;;;;;;;25.20;4.03;;;;;;;-145.18;100.00;46736.56;5087372;28;20028;-77
2023/12/10 05:44:59;;;;;;;19.73;3.03;;;;;;;-145.18;100.00;46732.66;5079668;28;20253;-78
2023/12/10 05:47:24;;;;;;;26.67;3.87;;;;;;;-145.18;100.00;46738.53;5089017;28;20036;-78
2023/12/10 05:49:50;;;;;;;19.53;2.97;;;;;;;-145.18;100.00;46734.63;5075573;28;20170;-78
2023/12/10 05:52:16;;;;;;;19.87;3.10;;;;;;;-145.18;100.00;46724.84;5083001;28;20039;-78
2023/12/10 05:54:41;;;;;;;23.17;4.27;;;;;;;-145.18;100.00;46726.81;5082666;28;20040;-77
2023/12/10 05:57:07;;;;;;;22.43;3.63;;;;;;;-145.18;100.00;46726.81;5078281;28;20470;-77
2023/12/10 05:59:32;;;;;;;23.40;3.60;;;;;;;-145.18;100.00;46720.94;5080738;28;20472;-78
2023/12/10 06:01:57;;;;;;;23.70;2.80;;;;;;;-145.18;100.00;46719.00;5075842;28;20347;-76
2023/12/10 06:04:23;;;;;;;17.47;3.47;;;;;;;-145.18;100.00;46722.91;5079471;28;20037;-77
2023/12/10 06:06:48;;;;;;;22.33;2.80;;;;;;;-145.18;100.00;46709.22;5073791;28;20032;-77
2023/12/10 06:09:14;;;;;;;21.27;3.37;;;;;;;-145.18;100.00;46701.41;5076636;28;20067;-67
2023/12/10 06:11:40;;;;;;;21.50;2.43;;;;;;;-145.18;100.00;46691.66;5082582;28;20032;-67
2023/12/10 06:14:05;;;;;;;21.40;3.30;;;;;;;-145.18;100.00;46707.28;5079703;28;20048;-66
2023/12/10 06:16:31;;;;;;;19.53;3.10;;;;;;;-145.18;100.00;46711.19;5081034;28;20031;-67
2023/12/10 06:18:56;;;;;;;12.63;2.17;;;;;;;-145.18;100.00;46719.00;5079591;28;20025;-67
2023/12/10 06:21:22;;;;;;;18.47;3.00;;;;;;;-145.18;100.00;46713.13;5072548;28;20044;-67
2023/12/10 06:23:47;;;;;;;22.40;3.50;;;;;;;-145.18;100.00;46726.81;5074317;28;20032;-67
2023/12/10 06:26:13;;;;;;;19.17;3.20;;;;;;;-145.18;100.00;46717.03;5072169;28;20028;-67
2023/12/10 06:28:38;;;;;;;16.93;3.30;;;;;;;-145.18;100.00;46713.13;5071750;28;20039;-67
2023/12/10 06:31:04;;;;;;;23.83;2.87;;;;;;;-145.18;100.00;46709.22;5071833;28;20029;-67
2023/12/10 06:33:29;;;;;;;20.93;3.13;;;;;;;-145.18;100.00;46726.81;5085271;28;20035;-66
2023/12/10 06:35:55;;;;;;;24.67;2.53;;;;;;;-145.18;100.00;46709.22;5071676;28;20108;-67
2023/12/10 06:38:20;;;;;;;23.30;3.30;;;;;;;-145.18;100.00;46711.19;5078747;28;20036;-67
2023/12/10 06:40:46;;;;;;;28.60;3.57;;;;;;;-145.18;100.00;46709.22;5073575;28;20082;-67
2023/12/10 06:43:11;;;;;;;19.73;3.00;;;;;;;-145.18;100.00;46711.19;5078880;28;20060;-67
2023/12/10 06:45:37;;;;;;;18.47;3.13;;;;;;;-145.18;100.00;46719.00;5075563;28;20034;-67
2023/12/10 06:48:03;;;;;;;15.67;2.63;;;;;;;-145.18;100.00;46711.19;5082144;28;20064;-67
2023/12/10 06:50:30;;;;;;;24.57;3.60;;;;;;;-145.18;100.00;46693.59;5078512;28;20313;-67
2023/12/10 06:52:56;;;;;;;18.23;3.03;;;;;;;-145.18;100.00;46703.38;5071952;28;20036;-67
2023/12/10 06:55:21;;;;;;;27.43;3.73;;;;;;;-145.18;100.00;46701.41;5077797;28;20281;-67
2023/12/10 06:57:47;;;;;;;19.60;2.50;;;;;;;-145.18;100.00;46711.19;5071895;28;20095;-67
2023/12/10 07:00:13;;;;;;;38.07;3.30;;;;;;;-145.18;100.00;46707.28;5073064;28;20113;-67
2023/12/10 07:02:39;;;;;;;32.73;3.97;;;;;;;-145.18;100.00;46705.31;5084097;28;20483;-67
2023/12/10 07:05:05;;;;;;;19.00;2.53;;;;;;;-145.18;100.00;46707.28;5077750;28;20314;-66
2023/12/10 07:07:31;;;;;;;23.00;2.63;;;;;;;-145.18;100.00;46715.09;5071996;28;20036;-67
2023/12/10 07:09:57;;;;;;;26.70;2.83;;;;;;;-145.18;100.00;46687.75;5072050;28;20296;-67
2023/12/10 07:12:22;;;;;;;21.00;3.20;;;;;;;-145.18;100.00;46681.88;5077267;28;20312;-67
2023/12/10 07:14:48;;;;;;;24.93;3.53;;;;;;;-145.18;100.00;46681.88;5072048;28;20154;-67
2023/12/10 07:17:14;;;;;;;16.40;2.67;;;;;;;-145.18;100.00;46672.13;5079175;28;20040;-67
2023/12/10 07:19:39;;;;;;;21.40;2.57;;;;;;;-145.18;100.00;46679.94;5087123;28;20033;-67
2023/12/10 07:22:05;;;;;;;17.30;2.90;;;;;;;-145.18;100.00;46668.22;5081974;28;20273;-66
2023/12/10 07:24:31;;;;;;;14.83;2.37;;;;;;;-145.18;100.00;46672.13;5075723;28;20028;-67
2023/12/10 07:26:57;;;;;;;19.37;2.93;;;;;;;-145.18;100.00;46681.88;5085376;28;20119;-67
2023/12/10 07:29:22;;;;;;;15.23;2.27;;;;;;;-145.18;100.00;46691.66;5073794;28;20371;-66
2023/12/10 07:31:48;;;;;;;20.23;2.83;;;;;;;-145.18;100.00;46703.38;5081568;28;20476;-67
2023/12/10 07:34:13;;;;;;;15.13;2.63;;;;;;;-145.18;100.00;46709.22;5090218;28;20415;-66
2023/12/10 07:36:38;;;;;;;23.13;2.67;;;;;;;-145.18;100.00;46724.84;5091257;28;20495;-67
2023/12/10 07:39:04;;;;;;;24.43;2.80;;;;;;;-145.18;100.00;46724.84;5080733;28;20433;-67
2023/12/10 07:41:29;;;;;;;25.53;3.60;;;;;;;-145.18;100.00;46732.66;5081856;28;20395;-67
2023/12/10 07:43:55;;;;;;;33.03;3.17;;;;;;;-145.18;100.00;46736.56;5083341;28;20524;-67
2023/12/10 07:46:20;;;;;;;25.13;4.23;;;;;;;-145.18;100.00;46742.44;5085737;28;20043;-67
2023/12/10 07:48:45;;;;;;;19.30;2.70;;;;;;;-145.18;100.00;46740.47;5080388;28;20036;-67
2023/12/10 07:51:11;;;;;;;20.80;3.23;;;;;;;-145.18;100.00;46736.56;5088675;28;20090;-67
2023/12/10 07:53:36;;;;;;;25.63;5.57;;;;;;;-145.18;100.00;46738.53;5088740;28;20082;-67
2023/12/10 07:56:02;;;;;;;19.47;2.73;;;;;;;-145.18;100.00;46748.28;5091030;28;20488;-67
2023/12/10 07:58:27;;;;;;;21.13;2.60;;;;;;;-145.18;100.00;46746.34;5087194;28;20112;-67
2023/12/10 08:00:52;;;;;;;21.47;3.10;;;;;;;-145.18;100.00;46742.44;5093076;28;20475;-67
2023/12/10 08:03:18;;;;;;;20.33;2.77;;;;;;;-145.18;100.00;46748.28;5091702;28;20381;-67
2023/12/10 08:05:43;;;;;;;33.63;3.10;;;;;;;-145.18;100.00;46742.44;5083506;28;20043;-67
2023/12/10 08:08:09;;;;;;;16.63;2.83;;;;;;;-145.18;100.00;46742.44;5079982;28;20036;-67
2023/12/10 08:10:34;;;;;;;25.27;2.27;;;;;;;-145.18;100.00;46746.34;5081644;28;20039;-67
2023/12/10 08:13:00;;;;;;;20.53;3.17;;;;;;;-145.18;100.00;46746.34;5080989;28;20071;-67
2023/12/10 08:15:26;;;;;;;25.80;4.10;;;;;;;-145.18;100.00;46746.34;5075489;28;20389;-67
2023/12/10 08:17:52;;;;;;;20.00;3.23;;;;;;;-145.18;100.00;46750.25;5079125;28;20065;-67
2023/12/10 08:20:17;;;;;;;21.13;2.80;;;;;;;-145.18;100.00;46744.38;5080518;28;20036;-67
2023/12/10 08:22:42;;;;;;;16.67;1.97;;;;;;;-145.18;100.00;46744.38;5084834;28;20690;-67
2023/12/10 08:25:08;;;;;;;19.10;3.67;;;;;;;-145.18;100.00;46748.28;5083489;28;20032;-67
2023/12/10 08:27:33;;;;;;;26.80;4.80;;;;;;;-145.18;100.00;46746.34;5079554;28;20484;-77
2023/12/10 08:29:59;;;;;;;19.97;2.77;;;;;;;-145.18;100.00;46752.19;5083761;28;20035;-76
2023/12/10 08:32:24;;;;;;;19.23;2.27;;;;;;;-145.18;100.00;46748.28;5085494;28;20043;-76
2023/12/10 08:34:50;;;;;;;18.77;3.27;;;;;;;-145.18;100.00;46746.34;5087840;28;20511;-76
2023/12/10 08:37:16;;;;;;;30.27;4.00;;;;;;;-145.18;100.00;46750.25;5084038;28;20035;-76
2023/12/10 08:39:42;;;;;;;13.70;2.37;;;;;;;-145.18;100.00;46746.34;5089272;28;20082;-76
2023/12/10 08:42:07;;;;;;;19.37;2.43;;;;;;;-145.18;100.00;46748.28;5084312;28;20365;-76
2023/12/10 08:44:33;;;;;;;19.50;2.20;;;;;;;-145.18;100.00;46742.44;5090432;28;20276;-76
2023/12/10 08:46:58;;;;;;;17.47;3.13;;;;;;;-145.18;100.00;46752.19;5087612;28;20032;-77
2023/12/10 08:49:24;;;;;;;24.07;3.67;;;;;;;-145.18;100.00;46746.34;5085216;28;20040;-76
2023/12/10 08:51:49;;;;;;;28.17;3.63;;;;;;;-145.18;100.00;46746.34;5086031;28;20032;-76
2023/12/10 08:54:14;;;;;;;21.37;3.23;;;;;;;-145.18;100.00;46744.38;5086149;28;20036;-77
2023/12/10 08:56:40;;;;;;;17.20;2.60;;;;;;;-145.18;100.00;46748.28;5083237;28;20101;-77
2023/12/10 08:59:05;;;;;;;23.37;2.63;;;;;;;-145.18;100.00;46746.34;5083794;28;20464;-77
2023/12/10 09:01:31;;;;;;;28.00;3.93;;;;;;;-145.18;100.00;46740.47;5080751;28;20097;-77
2023/12/10 09:03:56;;;;;;;20.67;2.67;;;;;;;-145.18;100.00;46744.38;5083999;27;20476;-77
2023/12/10 09:06:21;;;;;;;28.07;2.70;;;;;;;-145.18;100.00;46746.34;5094431;28;20032;-76
2023/12/10 09:08:47;;;;;;;24.57;3.87;;;;;;;-145.18;100.00;46742.44;5086416;28;20691;-76
2023/12/10 09:11:13;;;;;;;24.70;2.90;;;;;;;-145.18;100.00;46744.38;5081900;28;20403;-77
2023/12/10 09:13:38;;;;;;;21.47;2.90;;;;;;;-145.18;100.00;46742.44;5077454;28;20471;-76
2023/12/10 09:16:06;;;;;;;12.83;2.13;;;;;;;-145.18;100.00;46742.44;5080918;28;20051;-77
2023/12/10 09:18:32;;;;;;;23.00;3.67;;;;;;;-145.18;100.00;46742.44;5081901;28;20035;-77
2023/12/10 09:20:58;;;;;;;25.37;3.10;;;;;;;-145.18;100.00;46738.53;5087410;28;20368;-76
2023/12/10 09:23:23;;;;;;;23.20;3.57;;;;;;;-145.18;100.00;46746.34;5078628;28;20348;-77
2023/12/10 09:25:49;;;;;;;23.57;3.10;;;;;;;-145.18;100.00;46740.47;5081887;28;20032;-76
2023/12/10 09:28:14;;;;;;;20.13;3.17;;;;;;;-145.18;100.00;46738.53;5081834;28;20021;-76
2023/12/10 09:30:40;;;;;;;22.57;3.63;;;;;;;-145.18;100.00;46742.44;5077473;28;20131;-76
2023/12/10 09:33:06;;;;;;;17.53;2.57;;;;;;;-145.18;100.00;46738.53;5073760;28;20024;-77
2023/12/10 09:35:31;;;;;;;12.37;1.73;;;;;;;-145.18;100.00;46740.47;5085551;28;20396;-76
2023/12/10 09:37:57;;;;;;;22.20;2.80;;;;;;;-145.18;100.00;46730.72;5079024;28;20060;-76
2023/12/10 09:40:22;;;;;;;19.73;2.70;;;;;;;-145.18;100.00;46734.63;5085531;28;20116;-76
2023/12/10 09:42:48;;;;;;;17.80;2.70;;;;;;;-145.18;100.00;46726.81;5085798;28;20037;-77
2023/12/10 09:45:13;;;;;;;23.70;2.90;;;;;;;-145.18;100.00;46728.75;5083132;28;20032;-76
2023/12/10 09:47:40;;;;;;;21.27;3.00;;;;;;;-145.18;100.00;46734.63;5096486;28;20039;-77
2023/12/10 09:50:06;;;;;;;27.77;2.70;;;;;;;-145.18;100.00;46728.75;5075939;28;20438;-76
2023/12/10 09:52:31;;;;;;;29.50;4.37;;;;;;;-145.18;100.00;46724.84;5082092;28;20284;-76
2023/12/10 09:54:57;;;;;;;26.33;3.40;;;;;;;-145.18;100.00;46724.84;5084931;28;20369;-77
2023/12/10 09:57:23;;;;;;;20.10;3.20;;;;;;;-145.18;100.00;46717.03;5087393;28;20083;-77
2023/12/10 09:59:48;;;;;;;17.67;2.47;;;;;;;-145.18;100.00;46722.91;5086091;28;20091;-76
2023/12/10 10:02:15;;;;;;;20.00;2.63;;;;;;;-145.18;100.00;46719.00;5087602;28;20044;-76
2023/12/10 10:04:42;;;;;;;24.43;3.10;;;;;;;-145.18;100.00;46719.00;5088142;28;20036;-76
2023/12/10 10:07:07;;;;;;;16.07;3.07;;;;;;;-145.18;100.00;46720.94;5084018;28;20764;-76
2023/12/10 10:09:34;;;;;;;29.30;4.27;;;;;;;-145.18;100.00;46719.00;5086987;28;20289;-76
2023/12/10 10:12:00;;;;;;;27.87;3.23;;;;;;;-145.18;100.00;46722.91;5085516;28;20029;-76
2023/12/10 10:14:25;;;;;;;23.73;2.70;;;;;;;-145.18;100.00;46722.91;5082313;28;20039;-77
2023/12/10 10:16:50;;;;;;;14.83;2.43;;;;;;;-145.18;100.00;46719.00;5083005;28;20028;-76
2023/12/10 10:19:16;;;;;;;26.77;3.37;;;;;;;-145.18;100.00;46719.00;5088441;28;20118;-76
2023/12/10 10:21:42;;;;;;;25.17;3.47;;;;;;;-145.18;100.00;46720.94;5104954;27;20054;-76
2023/12/10 10:24:08;;;;;;;26.83;3.83;;;;;;;-145.18;100.00;46722.91;5082450;28;20020;-76
2023/12/10 10:26:34;;;;;;;21.87;3.20;;;;;;;-145.18;100.00;46722.91;5081742;28;20040;-77
2023/12/10 10:29:02;;;;;;;21.70;2.83;;;;;;;-145.18;100.00;46722.91;5083685;28;20097;-76
2023/12/10 10:31:28;;;;;;;22.27;4.37;;;;;;;-145.18;100.00;46722.91;5091636;28;20036;-76
2023/12/10 10:33:56;;;;;;;23.07;2.77;;;;;;;-145.18;100.00;46722.91;5087180;28;20028;-76
2023/12/10 10:36:22;;;;;;;18.23;2.47;;;;;;;-145.18;100.00;46717.03;5088401;28;20683;-75
2023/12/10 10:38:49;;;;;;;23.10;2.60;;;;;;;-145.18;100.00;46720.94;5084010;28;20276;-76
2023/12/10 10:41:15;;;;;;;27.17;2.93;;;;;;;-145.18;100.00;46715.09;5081810;28;20044;-76
2023/12/10 10:43:41;;;;;;;18.77;3.20;;;;;;;-145.18;100.00;46717.03;5087661;28;20038;-76
2023/12/10 10:46:07;;;;;;;21.30;4.27;;;;;;;-145.18;100.00;46715.09;5086955;28;20276;-76
2023/12/10 10:48:35;;;;;;;30.17;3.37;;;;;;;-145.18;100.00;46719.00;5082622;28;20716;-76
2023/12/10 10:51:01;;;;;;;26.57;2.87;;;;;;;-145.18;100.00;46713.13;5085706;28;20039;-76
2023/12/10 10:53:28;;;;;;;18.97;2.53;;;;;;;-145.18;100.00;46717.03;5084804;28;20042;-76
2023/12/10 10:55:53;;;;;;;17.30;2.60;;;;;;;-145.18;100.00;46717.03;5081658;28;20044;-76